sensor_id;sensor_type;location;lat;lon;timestamp;pressure;altitude;pressure_sealevel;temperature;humidity
25526;BME280;13424;48.424;11.258;2023-03-03T00:00:49;95647.31;;;3.45;75.81
25526;BME280;13424;48.424;11.258;2023-03-03T00:03:19;95649.09;;;3.38;76.43
25526;BME280;13424;48.424;11.258;2023-03-03T00:05:45;95647.75;;;3.49;75.32
25526;BME280;13424;48.424;11.258;2023-03-03T00:08:11;95647.38;;;3.24;76.79
25526;BME280;13424;48.424;11.258;2023-03-03T00:10:38;95645.38;;;3.26;76.83
25526;BME280;13424;48.424;11.258;2023-03-03T00:13:19;95647.13;;;2.91;77.83
25526;BME280;13424;48.424;11.258;2023-03-03T00:15:45;95650.06;;;3.02;77.26
25526;BME280;13424;48.424;11.258;2023-03-03T00:18:25;95655.63;;;3.42;76.02
25526;BME280;13424;48.424;11.258;2023-03-03T00:20:58;95645.28;;;3.13;76.83
25526;BME280;13424;48.424;11.258;2023-03-03T00:23:38;95639.34;;;3.39;76.43
25526;BME280;13424;48.424;11.258;2023-03-03T00:26:35;95638.06;;;3.56;74.91
25526;BME280;13424;48.424;11.258;2023-03-03T00:29:22;95640.84;;;3.48;75.47
25526;BME280;13424;48.424;11.258;2023-03-03T00:31:48;95643.03;;;3.44;75.12
25526;BME280;13424;48.424;11.258;2023-03-03T00:36:43;95639.47;;;3.58;74.60
25526;BME280;13424;48.424;11.258;2023-03-03T00:39:30;95647.09;;;3.40;75.09
25526;BME280;13424;48.424;11.258;2023-03-03T00:41:59;95644.31;;;3.48;75.04
25526;BME280;13424;48.424;11.258;2023-03-03T00:44:42;95653.47;;;3.24;76.05
25526;BME280;13424;48.424;11.258;2023-03-03T00:47:30;95651.31;;;3.06;77.29
25526;BME280;13424;48.424;11.258;2023-03-03T00:52:44;95641.13;;;3.25;76.20
25526;BME280;13424;48.424;11.258;2023-03-03T00:55:11;95646.59;;;3.30;76.03
25526;BME280;13424;48.424;11.258;2023-03-03T00:57:37;95646.84;;;3.07;76.70
25526;BME280;13424;48.424;11.258;2023-03-03T01:00:06;95642.09;;;2.96;77.10
25526;BME280;13424;48.424;11.258;2023-03-03T01:02:33;95652.94;;;3.07;77.46
25526;BME280;13424;48.424;11.258;2023-03-03T01:04:59;95640.72;;;3.28;75.81
25526;BME280;13424;48.424;11.258;2023-03-03T01:07:25;95647.50;;;3.44;75.11
25526;BME280;13424;48.424;11.258;2023-03-03T01:09:51;95641.22;;;3.45;74.82
25526;BME280;13424;48.424;11.258;2023-03-03T01:12:17;95643.75;;;3.59;74.20
25526;BME280;13424;48.424;11.258;2023-03-03T01:14:43;95641.22;;;3.45;74.70
25526;BME280;13424;48.424;11.258;2023-03-03T01:17:10;95637.63;;;3.52;74.63
25526;BME280;13424;48.424;11.258;2023-03-03T01:19:35;95630.31;;;3.48;74.81
25526;BME280;13424;48.424;11.258;2023-03-03T01:22:01;95626.66;;;3.49;74.62
25526;BME280;13424;48.424;11.258;2023-03-03T01:24:27;95630.88;;;3.43;75.04
25526;BME280;13424;48.424;11.258;2023-03-03T01:26:53;95628.53;;;3.27;75.30
25526;BME280;13424;48.424;11.258;2023-03-03T01:29:19;95623.72;;;3.02;76.25
25526;BME280;13424;48.424;11.258;2023-03-03T01:31:45;95618.59;;;2.94;77.06
25526;BME280;13424;48.424;11.258;2023-03-03T01:34:11;95629.94;;;2.95;76.96
25526;BME280;13424;48.424;11.258;2023-03-03T01:36:36;95635.28;;;2.80;77.26
25526;BME280;13424;48.424;11.258;2023-03-03T01:39:03;95635.69;;;2.77;78.15
25526;BME280;13424;48.424;11.258;2023-03-03T01:41:30;95632.53;;;2.88;77.84
25526;BME280;13424;48.424;11.258;2023-03-03T01:43:58;95638.88;;;2.72;78.41
25526;BME280;13424;48.424;11.258;2023-03-03T01:46:47;95639.19;;;2.63;78.32
25526;BME280;13424;48.424;11.258;2023-03-03T01:49:28;95645.34;;;2.48;79.32
25526;BME280;13424;48.424;11.258;2023-03-03T01:52:01;95640.16;;;2.55;79.00
25526;BME280;13424;48.424;11.258;2023-03-03T01:54:37;95634.63;;;2.71;78.40
25526;BME280;13424;48.424;11.258;2023-03-03T01:57:12;95637.03;;;3.22;75.79
25526;BME280;13424;48.424;11.258;2023-03-03T01:59:46;95626.75;;;3.34;74.93
25526;BME280;13424;48.424;11.258;2023-03-03T02:02:14;95638.34;;;3.40;74.57
25526;BME280;13424;48.424;11.258;2023-03-03T02:04:40;95637.47;;;3.26;74.57
25526;BME280;13424;48.424;11.258;2023-03-03T02:07:09;95643.09;;;3.23;74.65
25526;BME280;13424;48.424;11.258;2023-03-03T02:09:54;95630.72;;;3.17;74.97
25526;BME280;13424;48.424;11.258;2023-03-03T02:12:26;95638.56;;;3.10;75.59
25526;BME280;13424;48.424;11.258;2023-03-03T02:14:55;95636.63;;;2.97;76.28
25526;BME280;13424;48.424;11.258;2023-03-03T02:17:21;95638.19;;;3.13;75.40
25526;BME280;13424;48.424;11.258;2023-03-03T02:20:37;95633.56;;;3.22;74.77
25526;BME280;13424;48.424;11.258;2023-03-03T02:26:12;95628.25;;;3.15;74.63
25526;BME280;13424;48.424;11.258;2023-03-03T02:28:40;95626.03;;;2.91;75.47
25526;BME280;13424;48.424;11.258;2023-03-03T02:31:12;95622.88;;;2.52;77.63
25526;BME280;13424;48.424;11.258;2023-03-03T02:33:41;95623.66;;;2.46;78.54
25526;BME280;13424;48.424;11.258;2023-03-03T02:36:15;95625.63;;;2.87;77.59
25526;BME280;13424;48.424;11.258;2023-03-03T02:41:42;95621.91;;;2.54;78.48
25526;BME280;13424;48.424;11.258;2023-03-03T02:44:21;95625.47;;;2.46;78.88
25526;BME280;13424;48.424;11.258;2023-03-03T02:46:49;95634.06;;;2.33;79.10
25526;BME280;13424;48.424;11.258;2023-03-03T02:49:21;95628.41;;;2.36;78.50
25526;BME280;13424;48.424;11.258;2023-03-03T02:51:47;95625.03;;;2.64;78.17
25526;BME280;13424;48.424;11.258;2023-03-03T02:54:15;95624.22;;;2.91;76.38
25526;BME280;13424;48.424;11.258;2023-03-03T02:56:42;95620.69;;;3.05;75.47
25526;BME280;13424;48.424;11.258;2023-03-03T02:59:08;95623.28;;;2.99;75.79
25526;BME280;13424;48.424;11.258;2023-03-03T03:01:40;95620.31;;;2.80;77.13
25526;BME280;13424;48.424;11.258;2023-03-03T03:04:14;95623.84;;;3.22;75.30
25526;BME280;13424;48.424;11.258;2023-03-03T03:06:44;95624.22;;;3.19;74.81
25526;BME280;13424;48.424;11.258;2023-03-03T03:09:12;95607.34;;;3.14;74.06
25526;BME280;13424;48.424;11.258;2023-03-03T03:11:39;95614.50;;;3.20;74.16
25526;BME280;13424;48.424;11.258;2023-03-03T03:14:09;95614.91;;;3.17;73.83
25526;BME280;13424;48.424;11.258;2023-03-03T03:16:35;95625.34;;;3.03;73.71
25526;BME280;13424;48.424;11.258;2023-03-03T03:19:02;95613.47;;;2.86;73.75
25526;BME280;13424;48.424;11.258;2023-03-03T03:21:29;95607.53;;;2.56;75.02
25526;BME280;13424;48.424;11.258;2023-03-03T03:23:55;95616.06;;;2.58;74.79
25526;BME280;13424;48.424;11.258;2023-03-03T03:26:21;95619.63;;;2.72;74.86
25526;BME280;13424;48.424;11.258;2023-03-03T03:28:52;95615.72;;;2.68;76.54
25526;BME280;13424;48.424;11.258;2023-03-03T03:31:19;95624.91;;;3.00;75.53
25526;BME280;13424;48.424;11.258;2023-03-03T03:33:46;95628.00;;;2.82;76.89
25526;BME280;13424;48.424;11.258;2023-03-03T03:36:16;95637.53;;;2.83;77.41
25526;BME280;13424;48.424;11.258;2023-03-03T03:38:42;95628.22;;;3.08;76.69
25526;BME280;13424;48.424;11.258;2023-03-03T03:41:10;95639.66;;;2.94;77.22
25526;BME280;13424;48.424;11.258;2023-03-03T03:43:37;95642.31;;;2.94;77.75
25526;BME280;13424;48.424;11.258;2023-03-03T03:46:03;95642.25;;;3.16;76.98
25526;BME280;13424;48.424;11.258;2023-03-03T03:48:30;95644.47;;;3.12;77.07
25526;BME280;13424;48.424;11.258;2023-03-03T03:50:56;95640.31;;;3.31;76.75
25526;BME280;13424;48.424;11.258;2023-03-03T03:53:25;95642.50;;;3.55;75.68
25526;BME280;13424;48.424;11.258;2023-03-03T03:55:51;95642.63;;;3.41;76.43
25526;BME280;13424;48.424;11.258;2023-03-03T03:58:18;95645.97;;;3.56;76.13
25526;BME280;13424;48.424;11.258;2023-03-03T04:00:49;95635.16;;;3.92;74.86
25526;BME280;13424;48.424;11.258;2023-03-03T04:03:16;95639.69;;;4.05;74.37
25526;BME280;13424;48.424;11.258;2023-03-03T04:05:44;95645.03;;;3.77;75.10
25526;BME280;13424;48.424;11.258;2023-03-03T04:08:10;95641.63;;;3.83;75.17
25526;BME280;13424;48.424;11.258;2023-03-03T04:10:38;95643.00;;;3.79;74.69
25526;BME280;13424;48.424;11.258;2023-03-03T04:13:05;95647.84;;;4.16;73.87
25526;BME280;13424;48.424;11.258;2023-03-03T04:15:32;95645.31;;;3.88;74.68
25526;BME280;13424;48.424;11.258;2023-03-03T04:17:59;95648.50;;;3.77;75.61
25526;BME280;13424;48.424;11.258;2023-03-03T04:20:26;95642.13;;;3.58;76.31
25526;BME280;13424;48.424;11.258;2023-03-03T04:26:32;95652.66;;;4.00;74.91
25526;BME280;13424;48.424;11.258;2023-03-03T04:29:01;95646.47;;;3.73;75.96
25526;BME280;13424;48.424;11.258;2023-03-03T04:31:27;95647.47;;;4.19;74.43
25526;BME280;13424;48.424;11.258;2023-03-03T04:33:53;95642.19;;;4.19;74.74
25526;BME280;13424;48.424;11.258;2023-03-03T04:36:21;95643.81;;;4.34;74.29
25526;BME280;13424;48.424;11.258;2023-03-03T04:38:48;95640.53;;;4.18;74.73
25526;BME280;13424;48.424;11.258;2023-03-03T04:41:14;95647.06;;;4.23;74.72
25526;BME280;13424;48.424;11.258;2023-03-03T04:43:43;95644.19;;;4.17;75.16
25526;BME280;13424;48.424;11.258;2023-03-03T04:46:11;95641.72;;;4.09;75.14
25526;BME280;13424;48.424;11.258;2023-03-03T04:48:37;95640.66;;;3.90;75.75
25526;BME280;13424;48.424;11.258;2023-03-03T04:51:04;95639.75;;;4.31;74.86
25526;BME280;13424;48.424;11.258;2023-03-03T04:53:32;95638.53;;;4.34;74.62
25526;BME280;13424;48.424;11.258;2023-03-03T04:55:58;95638.56;;;4.40;74.27
25526;BME280;13424;48.424;11.258;2023-03-03T04:58:24;95634.91;;;4.35;74.45
25526;BME280;13424;48.424;11.258;2023-03-03T05:00:55;95638.59;;;4.47;74.21
25526;BME280;13424;48.424;11.258;2023-03-03T05:03:23;95635.16;;;4.53;74.25
25526;BME280;13424;48.424;11.258;2023-03-03T05:05:49;95636.97;;;4.66;73.71
25526;BME280;13424;48.424;11.258;2023-03-03T05:08:15;95640.66;;;4.58;73.45
25526;BME280;13424;48.424;11.258;2023-03-03T05:11:05;95639.63;;;4.66;73.91
25526;BME280;13424;48.424;11.258;2023-03-03T05:13:31;95645.84;;;4.25;74.73
25526;BME280;13424;48.424;11.258;2023-03-03T05:15:57;95643.22;;;3.77;76.70
25526;BME280;13424;48.424;11.258;2023-03-03T05:18:24;95648.25;;;4.13;76.19
25526;BME280;13424;48.424;11.258;2023-03-03T05:20:51;95643.19;;;4.25;75.35
25526;BME280;13424;48.424;11.258;2023-03-03T05:23:18;95648.97;;;3.94;76.37
25526;BME280;13424;48.424;11.258;2023-03-03T05:25:46;95647.66;;;4.11;76.40
25526;BME280;13424;48.424;11.258;2023-03-03T05:28:12;95652.25;;;3.96;77.30
25526;BME280;13424;48.424;11.258;2023-03-03T05:30:38;95659.34;;;4.02;76.97
25526;BME280;13424;48.424;11.258;2023-03-03T05:33:04;95657.38;;;4.17;76.12
25526;BME280;13424;48.424;11.258;2023-03-03T05:35:36;95660.06;;;4.24;75.85
25526;BME280;13424;48.424;11.258;2023-03-03T05:38:02;95655.03;;;4.49;74.99
25526;BME280;13424;48.424;11.258;2023-03-03T05:40:28;95661.94;;;4.37;75.92
25526;BME280;13424;48.424;11.258;2023-03-03T05:42:53;95660.31;;;4.36;76.18
25526;BME280;13424;48.424;11.258;2023-03-03T05:45:19;95663.78;;;4.56;75.35
25526;BME280;13424;48.424;11.258;2023-03-03T05:47:47;95668.31;;;4.75;74.79
25526;BME280;13424;48.424;11.258;2023-03-03T05:50:13;95663.41;;;4.59;75.35
25526;BME280;13424;48.424;11.258;2023-03-03T05:52:39;95684.53;;;4.59;75.22
25526;BME280;13424;48.424;11.258;2023-03-03T05:55:05;95671.72;;;4.43;75.30
25526;BME280;13424;48.424;11.258;2023-03-03T05:57:31;95683.34;;;4.75;74.33
25526;BME280;13424;48.424;11.258;2023-03-03T05:59:57;95685.97;;;4.82;73.94
25526;BME280;13424;48.424;11.258;2023-03-03T06:02:23;95679.25;;;4.53;75.27
25526;BME280;13424;48.424;11.258;2023-03-03T06:04:48;95678.41;;;4.45;75.58
25526;BME280;13424;48.424;11.258;2023-03-03T06:07:14;95680.91;;;4.87;74.29
25526;BME280;13424;48.424;11.258;2023-03-03T06:09:40;95693.34;;;4.93;73.70
25526;BME280;13424;48.424;11.258;2023-03-03T06:12:06;95685.41;;;4.86;74.47
25526;BME280;13424;48.424;11.258;2023-03-03T06:14:32;95691.06;;;4.70;75.34
25526;BME280;13424;48.424;11.258;2023-03-03T06:17:04;95688.22;;;4.71;74.79
25526;BME280;13424;48.424;11.258;2023-03-03T06:19:30;95688.66;;;4.95;74.17
25526;BME280;13424;48.424;11.258;2023-03-03T06:21:56;95691.50;;;5.00;73.60
25526;BME280;13424;48.424;11.258;2023-03-03T06:24:22;95691.06;;;4.70;74.51
25526;BME280;13424;48.424;11.258;2023-03-03T06:26:50;95696.09;;;4.45;75.60
25526;BME280;13424;48.424;11.258;2023-03-03T06:29:16;95690.41;;;4.48;76.13
25526;BME280;13424;48.424;11.258;2023-03-03T06:31:42;95692.81;;;4.36;76.39
25526;BME280;13424;48.424;11.258;2023-03-03T06:34:09;95694.94;;;4.81;74.88
25526;BME280;13424;48.424;11.258;2023-03-03T06:36:35;95702.09;;;5.07;74.49
25526;BME280;13424;48.424;11.258;2023-03-03T06:39:01;95700.88;;;5.16;73.43
25526;BME280;13424;48.424;11.258;2023-03-03T06:41:27;95691.13;;;5.16;73.80
25526;BME280;13424;48.424;11.258;2023-03-03T06:43:52;95705.34;;;5.09;74.22
25526;BME280;13424;48.424;11.258;2023-03-03T06:46:18;95712.66;;;5.20;73.92
25526;BME280;13424;48.424;11.258;2023-03-03T06:48:44;95716.94;;;5.01;74.09
25526;BME280;13424;48.424;11.258;2023-03-03T06:51:19;95712.88;;;5.12;73.41
25526;BME280;13424;48.424;11.258;2023-03-03T06:53:48;95719.59;;;5.14;73.89
25526;BME280;13424;48.424;11.258;2023-03-03T06:56:16;95719.19;;;5.30;73.40
25526;BME280;13424;48.424;11.258;2023-03-03T06:58:42;95725.28;;;5.18;73.74
25526;BME280;13424;48.424;11.258;2023-03-03T07:01:15;95737.84;;;4.96;74.33
25526;BME280;13424;48.424;11.258;2023-03-03T07:03:42;95725.38;;;4.63;75.55
25526;BME280;13424;48.424;11.258;2023-03-03T07:06:22;95726.28;;;5.10;74.06
25526;BME280;13424;48.424;11.258;2023-03-03T07:08:49;95726.50;;;5.02;74.88
25526;BME280;13424;48.424;11.258;2023-03-03T07:11:20;95729.72;;;5.04;74.67
25526;BME280;13424;48.424;11.258;2023-03-03T07:13:52;95734.09;;;4.57;75.95
25526;BME280;13424;48.424;11.258;2023-03-03T07:16:26;95732.44;;;4.49;76.53
25526;BME280;13424;48.424;11.258;2023-03-03T07:18:54;95735.78;;;4.71;75.95
25526;BME280;13424;48.424;11.258;2023-03-03T07:21:33;95733.81;;;5.07;75.10
25526;BME280;13424;48.424;11.258;2023-03-03T07:24:25;95744.81;;;5.50;73.58
25526;BME280;13424;48.424;11.258;2023-03-03T07:27:10;95746.25;;;5.39;74.01
25526;BME280;13424;48.424;11.258;2023-03-03T07:29:37;95744.78;;;4.97;74.78
25526;BME280;13424;48.424;11.258;2023-03-03T07:34:47;95739.91;;;5.73;73.03
25526;BME280;13424;48.424;11.258;2023-03-03T07:37:18;95746.06;;;5.47;73.80
25526;BME280;13424;48.424;11.258;2023-03-03T07:39:46;95737.09;;;5.48;73.40
25526;BME280;13424;48.424;11.258;2023-03-03T07:42:38;95741.94;;;5.98;72.43
25526;BME280;13424;48.424;11.258;2023-03-03T07:45:33;95747.63;;;6.08;72.14
25526;BME280;13424;48.424;11.258;2023-03-03T07:48:33;95744.19;;;5.74;73.23
25526;BME280;13424;48.424;11.258;2023-03-03T07:51:25;95736.66;;;5.98;72.93
25526;BME280;13424;48.424;11.258;2023-03-03T07:53:59;95743.69;;;6.30;72.56
25526;BME280;13424;48.424;11.258;2023-03-03T07:56:36;95751.75;;;5.71;74.35
25526;BME280;13424;48.424;11.258;2023-03-03T08:02:58;95758.25;;;5.95;73.60
25526;BME280;13424;48.424;11.258;2023-03-03T08:05:37;95765.44;;;6.90;72.26
25526;BME280;13424;48.424;11.258;2023-03-03T08:10:47;95768.41;;;6.18;73.21
25526;BME280;13424;48.424;11.258;2023-03-03T08:21:15;95761.84;;;6.27;72.25
25526;BME280;13424;48.424;11.258;2023-03-03T08:23:41;95770.59;;;6.27;72.55
25526;BME280;13424;48.424;11.258;2023-03-03T08:26:07;95775.94;;;6.72;72.38
25526;BME280;13424;48.424;11.258;2023-03-03T08:28:34;95776.88;;;6.39;72.50
25526;BME280;13424;48.424;11.258;2023-03-03T08:31:00;95774.59;;;6.56;71.28
25526;BME280;13424;48.424;11.258;2023-03-03T08:33:26;95776.06;;;6.90;70.70
25526;BME280;13424;48.424;11.258;2023-03-03T08:35:51;95782.94;;;7.05;70.32
25526;BME280;13424;48.424;11.258;2023-03-03T08:38:20;95781.38;;;7.22;71.10
25526;BME280;13424;48.424;11.258;2023-03-03T08:40:47;95777.81;;;6.65;71.95
25526;BME280;13424;48.424;11.258;2023-03-03T08:43:14;95773.94;;;6.61;71.88
25526;BME280;13424;48.424;11.258;2023-03-03T08:45:45;95782.09;;;6.59;72.33
25526;BME280;13424;48.424;11.258;2023-03-03T08:48:14;95792.34;;;6.94;70.60
25526;BME280;13424;48.424;11.258;2023-03-03T08:50:41;95775.53;;;6.68;70.40
25526;BME280;13424;48.424;11.258;2023-03-03T08:53:14;95783.75;;;7.05;70.16
25526;BME280;13424;48.424;11.258;2023-03-03T08:55:41;95784.03;;;7.22;69.65
25526;BME280;13424;48.424;11.258;2023-03-03T08:58:07;95790.03;;;7.92;68.26
25526;BME280;13424;48.424;11.258;2023-03-03T09:00:32;95796.38;;;8.34;66.94
25526;BME280;13424;48.424;11.258;2023-03-03T09:02:59;95794.88;;;7.20;68.92
25526;BME280;13424;48.424;11.258;2023-03-03T09:05:25;95798.75;;;7.49;68.76
25526;BME280;13424;48.424;11.258;2023-03-03T09:07:53;95798.19;;;7.41;69.36
25526;BME280;13424;48.424;11.258;2023-03-03T09:10:25;95795.44;;;7.29;68.23
25526;BME280;13424;48.424;11.258;2023-03-03T09:12:57;95796.88;;;7.25;68.39
25526;BME280;13424;48.424;11.258;2023-03-03T09:15:35;95800.09;;;7.90;67.46
25526;BME280;13424;48.424;11.258;2023-03-03T09:18:21;95807.44;;;8.38;65.85
25526;BME280;13424;48.424;11.258;2023-03-03T09:20:54;95808.94;;;8.02;66.67
25526;BME280;13424;48.424;11.258;2023-03-03T09:23:52;95815.59;;;8.11;67.11
25526;BME280;13424;48.424;11.258;2023-03-03T09:26:29;95818.31;;;7.80;67.38
25526;BME280;13424;48.424;11.258;2023-03-03T09:38:01;95821.44;;;7.77;66.83
25526;BME280;13424;48.424;11.258;2023-03-03T09:40:45;95818.66;;;8.58;66.02
25526;BME280;13424;48.424;11.258;2023-03-03T09:43:35;95822.03;;;8.84;65.59
25526;BME280;13424;48.424;11.258;2023-03-03T09:46:34;95829.88;;;8.79;65.55
25526;BME280;13424;48.424;11.258;2023-03-03T09:49:30;95831.81;;;8.03;66.27
25526;BME280;13424;48.424;11.258;2023-03-03T09:55:48;95835.78;;;8.62;65.83
25526;BME280;13424;48.424;11.258;2023-03-03T09:58:52;95830.16;;;8.89;65.39
25526;BME280;13424;48.424;11.258;2023-03-03T10:01:39;95829.78;;;8.67;65.27
25526;BME280;13424;48.424;11.258;2023-03-03T10:04:37;95835.06;;;8.55;65.17
25526;BME280;13424;48.424;11.258;2023-03-03T10:07:33;95831.78;;;8.90;65.33
25526;BME280;13424;48.424;11.258;2023-03-03T10:13:07;95829.88;;;8.60;66.08
25526;BME280;13424;48.424;11.258;2023-03-03T10:19:01;95830.50;;;8.92;65.18
25526;BME280;13424;48.424;11.258;2023-03-03T10:21:38;95839.84;;;9.32;64.94
25526;BME280;13424;48.424;11.258;2023-03-03T10:24:32;95840.78;;;9.67;63.72
25526;BME280;13424;48.424;11.258;2023-03-03T10:30:26;95851.88;;;10.18;62.80
25526;BME280;13424;48.424;11.258;2023-03-03T10:37:15;95846.78;;;9.03;64.74
25526;BME280;13424;48.424;11.258;2023-03-03T10:49:04;95855.47;;;9.28;63.62
25526;BME280;13424;48.424;11.258;2023-03-03T10:58:19;95858.78;;;9.23;64.75
25526;BME280;13424;48.424;11.258;2023-03-03T11:01:29;95858.72;;;9.60;63.42
25526;BME280;13424;48.424;11.258;2023-03-03T11:07:24;95842.47;;;9.20;63.99
25526;BME280;13424;48.424;11.258;2023-03-03T11:13:25;95838.94;;;9.38;63.39
25526;BME280;13424;48.424;11.258;2023-03-03T11:22:36;95848.69;;;10.27;61.60
25526;BME280;13424;48.424;11.258;2023-03-03T11:25:32;95834.63;;;10.55;60.60
25526;BME280;13424;48.424;11.258;2023-03-03T11:31:01;95839.94;;;10.79;60.21
25526;BME280;13424;48.424;11.258;2023-03-03T11:33:46;95838.44;;;10.71;60.26
25526;BME280;13424;48.424;11.258;2023-03-03T11:36:47;95839.47;;;10.82;58.73
25526;BME280;13424;48.424;11.258;2023-03-03T11:39:22;95820.44;;;11.30;59.21
25526;BME280;13424;48.424;11.258;2023-03-03T11:42:08;95822.88;;;11.20;59.04
25526;BME280;13424;48.424;11.258;2023-03-03T11:44:43;95823.41;;;10.42;60.48
25526;BME280;13424;48.424;11.258;2023-03-03T11:47:23;95815.75;;;10.97;59.92
25526;BME280;13424;48.424;11.258;2023-03-03T11:53:12;95821.22;;;11.02;59.24
25526;BME280;13424;48.424;11.258;2023-03-03T11:55:41;95822.19;;;11.82;58.03
25526;BME280;13424;48.424;11.258;2023-03-03T11:58:26;95827.09;;;10.76;58.91
25526;BME280;13424;48.424;11.258;2023-03-03T12:01:19;95833.13;;;11.11;59.31
25526;BME280;13424;48.424;11.258;2023-03-03T12:08:02;95829.63;;;11.23;58.60
25526;BME280;13424;48.424;11.258;2023-03-03T12:11:13;95822.19;;;10.84;59.54
25526;BME280;13424;48.424;11.258;2023-03-03T12:16:34;95823.34;;;12.02;56.54
25526;BME280;13424;48.424;11.258;2023-03-03T12:25:21;95810.28;;;11.61;57.04
25526;BME280;13424;48.424;11.258;2023-03-03T12:33:49;95799.72;;;11.37;57.75
25526;BME280;13424;48.424;11.258;2023-03-03T12:39:18;95802.19;;;11.56;57.64
25526;BME280;13424;48.424;11.258;2023-03-03T12:41:57;95797.03;;;11.66;57.24
25526;BME280;13424;48.424;11.258;2023-03-03T12:44:49;95797.13;;;11.71;57.46
25526;BME280;13424;48.424;11.258;2023-03-03T12:50:14;95800.22;;;10.94;58.89
25526;BME280;13424;48.424;11.258;2023-03-03T12:56:00;95786.88;;;11.96;56.69
25526;BME280;13424;48.424;11.258;2023-03-03T13:01:46;95794.81;;;12.25;56.32
25526;BME280;13424;48.424;11.258;2023-03-03T13:04:32;95789.69;;;10.87;58.20
25526;BME280;13424;48.424;11.258;2023-03-03T13:07:20;95781.94;;;11.60;57.32
25526;BME280;13424;48.424;11.258;2023-03-03T13:15:59;95785.00;;;11.06;57.93
25526;BME280;13424;48.424;11.258;2023-03-03T13:18:59;95785.38;;;11.72;56.43
25526;BME280;13424;48.424;11.258;2023-03-03T13:27:04;95782.03;;;12.49;56.33
25526;BME280;13424;48.424;11.258;2023-03-03T13:33:06;95782.31;;;12.14;56.37
25526;BME280;13424;48.424;11.258;2023-03-03T13:38:02;95776.31;;;12.40;55.21
25526;BME280;13424;48.424;11.258;2023-03-03T13:40:53;95784.97;;;12.69;55.75
25526;BME280;13424;48.424;11.258;2023-03-03T13:43:42;95774.81;;;12.71;55.41
25526;BME280;13424;48.424;11.258;2023-03-03T13:46:38;95761.84;;;12.02;56.59
25526;BME280;13424;48.424;11.258;2023-03-03T13:49:36;95769.22;;;12.51;56.14
25526;BME280;13424;48.424;11.258;2023-03-03T13:52:10;95766.53;;;12.12;56.23
25526;BME280;13424;48.424;11.258;2023-03-03T13:55:13;95767.91;;;12.53;55.63
25526;BME280;13424;48.424;11.258;2023-03-03T14:06:25;95766.59;;;12.34;56.54
25526;BME280;13424;48.424;11.258;2023-03-03T14:09:34;95772.88;;;12.45;55.59
25526;BME280;13424;48.424;11.258;2023-03-03T14:20:34;95745.09;;;12.29;55.92
25526;BME280;13424;48.424;11.258;2023-03-03T14:26:11;95747.31;;;12.76;54.90
25526;BME280;13424;48.424;11.258;2023-03-03T14:28:48;95744.00;;;12.25;55.18
25526;BME280;13424;48.424;11.258;2023-03-03T14:31:28;95748.97;;;12.38;54.99
25526;BME280;13424;48.424;11.258;2023-03-03T14:36:45;95746.41;;;12.26;55.01
25526;BME280;13424;48.424;11.258;2023-03-03T14:39:35;95752.03;;;12.47;54.84
25526;BME280;13424;48.424;11.258;2023-03-03T14:42:37;95747.50;;;12.09;55.98
25526;BME280;13424;48.424;11.258;2023-03-03T14:45:37;95739.63;;;12.57;54.99
25526;BME280;13424;48.424;11.258;2023-03-03T14:48:21;95749.81;;;12.22;56.38
25526;BME280;13424;48.424;11.258;2023-03-03T14:55:50;95751.19;;;11.74;57.01
25526;BME280;13424;48.424;11.258;2023-03-03T14:58:40;95751.50;;;12.28;55.69
25526;BME280;13424;48.424;11.258;2023-03-03T15:01:31;95744.03;;;12.30;55.92
25526;BME280;13424;48.424;11.258;2023-03-03T15:06:42;95738.44;;;11.14;58.20
25526;BME280;13424;48.424;11.258;2023-03-03T15:09:55;95737.59;;;11.42;56.64
25526;BME280;13424;48.424;11.258;2023-03-03T15:12:44;95734.88;;;10.97;56.38
25526;BME280;13424;48.424;11.258;2023-03-03T15:15:17;95742.91;;;11.25;56.51
25526;BME280;13424;48.424;11.258;2023-03-03T15:17:56;95732.06;;;11.32;56.84
25526;BME280;13424;48.424;11.258;2023-03-03T15:20:41;95742.94;;;11.75;56.43
25526;BME280;13424;48.424;11.258;2023-03-03T15:23:31;95739.63;;;11.68;56.48
25526;BME280;13424;48.424;11.258;2023-03-03T15:31:59;95743.78;;;11.93;54.26
25526;BME280;13424;48.424;11.258;2023-03-03T15:35:25;95736.47;;;11.09;55.51
25526;BME280;13424;48.424;11.258;2023-03-03T15:37:46;95742.59;;;12.22;54.48
25526;BME280;13424;48.424;11.258;2023-03-03T15:40:32;95738.56;;;12.20;54.36
25526;BME280;13424;48.424;11.258;2023-03-03T15:43:12;95739.63;;;12.19;54.99
25526;BME280;13424;48.424;11.258;2023-03-03T15:45:49;95743.16;;;12.41;54.95
25526;BME280;13424;48.424;11.258;2023-03-03T15:48:42;95738.69;;;12.30;55.32
25526;BME280;13424;48.424;11.258;2023-03-03T15:51:38;95735.34;;;12.18;56.87
25526;BME280;13424;48.424;11.258;2023-03-03T16:00:31;95744.69;;;12.37;56.57
25526;BME280;13424;48.424;11.258;2023-03-03T16:03:13;95743.56;;;12.16;56.84
25526;BME280;13424;48.424;11.258;2023-03-03T16:06:09;95736.38;;;12.00;57.21
25526;BME280;13424;48.424;11.258;2023-03-03T16:11:28;95745.06;;;12.07;56.89
25526;BME280;13424;48.424;11.258;2023-03-03T16:14:29;95746.38;;;11.88;57.94
25526;BME280;13424;48.424;11.258;2023-03-03T16:17:21;95737.13;;;11.62;59.19
25526;BME280;13424;48.424;11.258;2023-03-03T16:23:12;95746.63;;;11.24;59.81
25526;BME280;13424;48.424;11.258;2023-03-03T16:29:02;95753.78;;;11.07;59.66
25526;BME280;13424;48.424;11.258;2023-03-03T16:31:50;95759.44;;;11.10;59.64
25526;BME280;13424;48.424;11.258;2023-03-03T16:37:58;95760.38;;;10.76;60.22
25526;BME280;13424;48.424;11.258;2023-03-03T16:44:29;95762.78;;;10.37;60.83
25526;BME280;13424;48.424;11.258;2023-03-03T16:47:17;95767.44;;;10.30;60.57
25526;BME280;13424;48.424;11.258;2023-03-03T16:50:45;95778.41;;;10.10;60.99
25526;BME280;13424;48.424;11.258;2023-03-03T16:56:17;95784.81;;;9.44;62.89
25526;BME280;13424;48.424;11.258;2023-03-03T17:04:46;95793.88;;;9.66;62.21
25526;BME280;13424;48.424;11.258;2023-03-03T17:07:33;95784.81;;;9.56;62.14